createdAt,value
2018-02-25T00:02:15.099Z,-5.40
2018-02-25T00:04:47.580Z,-5.40
2018-02-25T00:07:20.828Z,-5.50
2018-02-25T00:09:53.304Z,-5.50
2018-02-25T00:12:25.764Z,-5.50
2018-02-25T00:14:58.245Z,-5.50
2018-02-25T01:48:20.745Z,-6.40
2018-02-25T01:51:04.927Z,-6.50
2018-02-25T01:53:37.412Z,-6.50
2018-02-25T01:56:09.876Z,-6.60
2018-02-25T01:58:42.361Z,-6.60
2018-02-25T03:32:06.268Z,-7.40
2018-02-25T03:34:38.724Z,-7.40
2018-02-25T03:37:11.201Z,-7.40
2018-02-25T03:39:43.665Z,-7.40
2018-02-25T03:42:16.143Z,-7.40
2018-02-25T03:44:48.604Z,-7.50
2018-02-25T04:46:52.847Z,-7.90
2018-02-25T04:49:25.304Z,-8.00
2018-02-25T04:51:57.793Z,-8.00
2018-02-25T04:54:30.250Z,-8.00
2018-02-25T04:57:02.727Z,-8.00
2018-02-25T04:59:35.204Z,-8.00
2018-02-25T06:01:39.349Z,-8.20
2018-02-25T06:04:11.896Z,-8.20
2018-02-25T06:06:44.352Z,-8.20
2018-02-25T06:09:16.856Z,-8.20
2018-02-25T06:11:49.302Z,-8.10
2018-02-25T06:14:21.778Z,-8.10
2018-02-25T06:16:55.021Z,-8.10
2018-02-25T06:19:27.471Z,-8.20
2018-02-25T06:21:59.948Z,-8.10
2018-02-25T06:24:32.394Z,-8.10
2018-02-25T06:27:05.637Z,-8.00
2018-02-25T06:29:38.096Z,-8.10
2018-02-25T06:32:10.580Z,-8.00
2018-02-25T06:34:43.044Z,-8.00
2018-02-25T06:37:15.533Z,-8.00
2018-02-25T06:39:48.027Z,-8.00
2018-02-25T06:42:20.523Z,-7.90
2018-02-25T06:44:52.951Z,-7.90
2018-02-25T06:47:25.407Z,-7.90
2018-02-25T06:49:57.897Z,-7.90
2018-02-25T06:52:30.357Z,-7.80
2018-02-25T06:55:02.841Z,-7.80
2018-02-25T06:57:35.289Z,-7.70
2018-02-25T07:00:08.531Z,-7.60
2018-02-25T07:02:41.016Z,-7.70
2018-02-25T07:05:13.480Z,-7.60
2018-02-25T07:07:45.936Z,-7.60
2018-02-25T07:10:18.423Z,-7.60
2018-02-25T07:12:50.879Z,-7.60
2018-02-25T07:15:23.376Z,-7.60
2018-02-25T07:17:55.832Z,-7.60
2018-02-25T07:20:28.328Z,-7.60
2018-02-25T07:23:00.779Z,-7.60
2018-02-25T07:25:33.312Z,-7.70
2018-02-25T07:28:05.792Z,-7.70
2018-02-25T07:30:38.289Z,-7.60
2018-02-25T07:33:11.786Z,-7.60
2018-02-25T07:35:44.507Z,-7.60
2018-02-25T07:38:19.615Z,-7.50
2018-02-25T07:40:52.951Z,-7.40
2018-02-25T07:43:27.151Z,-7.40
2018-02-25T07:46:00.018Z,-7.40
2018-02-25T07:48:35.412Z,-7.40
2018-02-25T07:51:11.308Z,-7.30
2018-02-25T07:53:44.900Z,-7.30
2018-02-25T07:56:21.355Z,-7.30
2018-02-25T07:58:54.327Z,-7.30
2018-02-25T08:01:28.860Z,-7.30
2018-02-25T08:04:04.180Z,-7.20
2018-02-25T08:06:39.339Z,-7.10
2018-02-25T08:09:12.337Z,-7.10
2018-02-25T08:11:46.736Z,-7.00
2018-02-25T08:14:27.185Z,-6.90
2018-02-25T08:16:59.810Z,-7.00
2018-02-25T08:19:34.043Z,-6.90
2018-02-25T08:22:06.847Z,-7.00
2018-02-25T08:24:41.022Z,-6.90
2018-02-25T08:27:13.741Z,-6.90
2018-02-25T08:29:47.135Z,-7.00
2018-02-25T08:32:20.527Z,-6.90
2018-02-25T08:34:53.764Z,-7.00
2018-02-25T08:37:27.962Z,-6.90
2018-02-25T08:40:00.563Z,-6.90
2018-02-25T08:42:33.929Z,-6.90
2018-02-25T08:45:06.667Z,-6.90
2018-02-25T08:47:40.504Z,-6.90
2018-02-25T08:50:13.055Z,-6.90
2018-02-25T08:52:46.358Z,-6.90
2018-02-25T08:55:19.727Z,-6.90
2018-02-25T08:57:52.984Z,-6.80
2018-02-25T09:00:25.528Z,-6.80
2018-02-25T09:02:58.180Z,-6.80
2018-02-25T09:05:30.874Z,-6.80
2018-02-25T09:08:20.028Z,-6.80
2018-02-25T09:10:52.542Z,-6.70
2018-02-25T09:13:25.083Z,-6.60
2018-02-25T09:15:58.412Z,-6.60
2018-02-25T09:18:30.981Z,-6.60
2018-02-25T09:21:04.409Z,-6.60
2018-02-25T09:23:37.096Z,-6.50
2018-02-25T09:26:09.581Z,-6.50
2018-02-25T09:28:42.171Z,-6.40
2018-02-25T09:31:16.446Z,-6.30
2018-02-25T09:33:48.924Z,-6.30
2018-02-25T09:36:21.482Z,-6.20
2018-02-25T09:38:53.960Z,-6.10
2018-02-25T09:41:26.444Z,-6.10
2018-02-25T09:43:58.903Z,-6.10
2018-02-25T09:46:31.393Z,-6.10
2018-02-25T09:49:03.857Z,-6.10
2018-02-25T09:51:36.347Z,-6.00
2018-02-25T09:54:08.848Z,-6.00
2018-02-25T09:56:41.328Z,-6.00
2018-02-25T09:59:13.812Z,-6.00
2018-02-25T10:01:46.364Z,-6.00
2018-02-25T10:04:18.851Z,-5.90
2018-02-25T10:06:51.308Z,-5.90
2018-02-25T10:09:23.813Z,-5.90
2018-02-25T10:11:56.257Z,-5.80
2018-02-25T10:14:28.737Z,-5.80
2018-02-25T10:17:11.091Z,-5.80
2018-02-25T10:19:44.333Z,-5.70
2018-02-25T10:22:16.784Z,-5.70
2018-02-25T10:24:49.272Z,-5.60
2018-02-25T10:27:21.727Z,-5.60
2018-02-25T10:29:54.209Z,-5.50
2018-02-25T10:32:26.671Z,-5.50
2018-02-25T10:34:59.164Z,-5.50
2018-02-25T10:37:31.624Z,-5.40
2018-02-25T10:40:04.107Z,-5.20
2018-02-25T10:42:36.556Z,-5.10
2018-02-25T10:45:09.813Z,-5.20
2018-02-25T10:47:42.292Z,-5.20
2018-02-25T10:50:14.748Z,-5.30
2018-02-25T10:52:47.236Z,-5.40
2018-02-25T10:55:19.691Z,-5.50
2018-02-25T10:57:52.165Z,-5.60
2018-02-25T11:00:30.280Z,-5.60
2018-02-25T11:03:02.749Z,-5.60
2018-02-25T11:05:35.256Z,-5.60
2018-02-25T11:08:07.712Z,-5.60
2018-02-25T11:10:40.176Z,-5.60
2018-02-25T11:13:12.647Z,-5.60
2018-02-25T11:15:45.112Z,-5.60
2018-02-25T11:18:17.603Z,-5.50
2018-02-25T11:20:50.072Z,-5.50
2018-02-25T11:23:22.549Z,-5.50
2018-02-25T11:25:55.016Z,-5.50
2018-02-25T11:28:27.496Z,-5.50
2018-02-25T11:30:59.957Z,-5.50
2018-02-25T11:33:32.441Z,-5.40
2018-02-25T11:36:04.901Z,-5.40
2018-02-25T11:38:37.371Z,-5.30
2018-02-25T11:41:09.856Z,-5.30
2018-02-25T11:43:42.324Z,-5.20
2018-02-25T11:46:14.806Z,-5.10
2018-02-25T11:48:47.267Z,-5.00
2018-02-25T11:51:20.509Z,-5.00
2018-02-25T11:53:52.976Z,-5.00
2018-02-25T11:56:25.456Z,-5.00
2018-02-25T11:58:57.912Z,-4.90
2018-02-25T12:01:30.400Z,-4.90
2018-02-25T12:04:02.871Z,-4.80
2018-02-25T12:06:35.464Z,-4.80
2018-02-25T12:09:07.920Z,-4.60
2018-02-25T12:11:40.409Z,-4.50
2018-02-25T12:14:12.885Z,-4.40
2018-02-25T12:16:45.362Z,-4.30
2018-02-25T12:19:17.836Z,-4.20
2018-02-25T12:21:50.294Z,-4.10
2018-02-25T12:24:22.994Z,-3.90
2018-02-25T12:26:55.454Z,-3.90
2018-02-25T12:29:27.943Z,-3.80
2018-02-25T12:32:00.400Z,-3.70
2018-02-25T12:34:33.890Z,-3.60
2018-02-25T12:37:06.355Z,-3.50
2018-02-25T12:39:38.844Z,-3.40
2018-02-25T12:42:11.332Z,-3.30
2018-02-25T12:44:43.803Z,-3.20
2018-02-25T12:47:16.291Z,-3.10
2018-02-25T12:49:48.784Z,-2.90
2018-02-25T12:52:21.248Z,-2.80
2018-02-25T12:54:53.737Z,-2.70
2018-02-25T12:57:26.193Z,-2.60
2018-02-25T12:59:58.688Z,-2.60
2018-02-25T13:02:31.140Z,-2.50
2018-02-25T13:05:03.784Z,-2.40
2018-02-25T13:07:36.237Z,-2.20
2018-02-25T13:10:09.483Z,-2.10
2018-02-25T13:12:41.943Z,-2.10
2018-02-25T13:15:14.417Z,-2.00
2018-02-25T13:17:46.882Z,-1.90
2018-02-25T13:20:19.378Z,-1.80
2018-02-25T13:22:51.829Z,-1.70
2018-02-25T13:25:24.345Z,-1.60
2018-02-25T13:27:56.795Z,-1.50
2018-02-25T13:30:29.304Z,-1.40
2018-02-25T13:33:01.760Z,-1.30
2018-02-25T13:35:34.253Z,-1.20
2018-02-25T13:38:06.709Z,-1.10
2018-02-25T13:40:39.215Z,-1.00
2018-02-25T13:43:11.679Z,-0.90
2018-02-25T13:45:44.179Z,-0.90
2018-02-25T13:48:16.660Z,-0.70
2018-02-25T13:50:49.112Z,-0.60
2018-02-25T13:53:21.614Z,-0.50
2018-02-25T13:55:54.853Z,-0.30
2018-02-25T13:58:27.332Z,-0.30
2018-02-25T14:00:59.910Z,-0.30
2018-02-25T14:03:32.384Z,-0.10
2018-02-25T14:06:04.871Z,-0.10
2018-02-25T14:08:37.339Z,0.00
2018-02-25T14:11:09.825Z,0.10
2018-02-25T14:13:42.281Z,0.10
2018-02-25T14:16:14.764Z,0.30
2018-02-25T14:18:47.229Z,0.30
2018-02-25T14:21:19.715Z,0.40
2018-02-25T14:23:53.078Z,0.40
2018-02-25T14:26:25.566Z,0.50
2018-02-25T14:28:58.021Z,0.50
2018-02-25T14:31:31.273Z,0.60
2018-02-25T14:34:03.733Z,0.60
2018-02-25T14:36:36.211Z,0.70
2018-02-25T14:39:08.662Z,0.80
2018-02-25T14:41:41.370Z,0.90
2018-02-25T14:44:13.833Z,1.00
2018-02-25T14:46:46.424Z,1.10
2018-02-25T14:49:18.886Z,1.30
2018-02-25T14:51:51.353Z,1.30
2018-02-25T14:54:23.818Z,1.40
2018-02-25T14:56:56.327Z,1.50
2018-02-25T14:59:28.765Z,1.40
2018-02-25T15:02:01.228Z,1.40
2018-02-25T15:04:33.703Z,1.30
2018-02-25T15:07:06.267Z,1.30
2018-02-25T15:09:38.780Z,1.30
2018-02-25T15:12:11.237Z,1.30
2018-02-25T15:14:43.720Z,1.30
2018-02-25T15:17:16.195Z,1.30
2018-02-25T15:19:48.720Z,1.30
2018-02-25T15:22:21.168Z,1.30
2018-02-25T15:24:53.653Z,1.30
2018-02-25T15:27:27.333Z,1.40
2018-02-25T15:30:04.157Z,1.40
2018-02-25T15:32:36.637Z,1.40
2018-02-25T15:35:09.093Z,1.30
2018-02-25T15:37:41.565Z,1.30
2018-02-25T15:40:14.129Z,1.30
2018-02-25T15:42:46.612Z,1.20
2018-02-25T15:45:19.084Z,1.10
2018-02-25T15:47:51.536Z,1.10
2018-02-25T15:50:24.013Z,1.00
2018-02-25T15:52:56.463Z,0.90
2018-02-25T15:55:29.706Z,0.80
2018-02-25T15:58:02.174Z,0.80
2018-02-25T16:00:34.660Z,0.90
2018-02-25T16:03:07.180Z,0.90
2018-02-25T16:05:39.667Z,0.90
2018-02-25T16:08:12.153Z,1.00
2018-02-25T16:10:44.596Z,1.00
2018-02-25T16:13:17.072Z,1.10
2018-02-25T16:15:49.530Z,1.20
2018-02-25T16:18:22.009Z,1.10
2018-02-25T16:20:54.503Z,1.10
2018-02-25T16:23:26.979Z,0.80
2018-02-25T16:25:59.440Z,0.40
2018-02-25T16:28:31.926Z,0.00
2018-02-25T16:31:05.157Z,-1.00
2018-02-25T16:33:37.669Z,-1.10
2018-02-25T16:36:10.124Z,-1.50
2018-02-25T16:38:42.598Z,-2.00
2018-02-25T16:41:15.841Z,-2.60
2018-02-25T16:43:48.310Z,-2.70
2018-02-25T16:46:20.777Z,-3.00
2018-02-25T16:48:53.236Z,-3.20
2018-02-25T16:51:25.712Z,-3.40
2018-02-25T16:53:58.180Z,-3.50
2018-02-25T16:56:30.669Z,-3.60
2018-02-25T16:59:03.133Z,-3.70
2018-02-25T17:01:35.613Z,-3.80
2018-02-25T17:04:08.058Z,-3.90
2018-02-25T17:06:40.544Z,-4.00
2018-02-25T17:09:12.998Z,-4.00
2018-02-25T17:11:45.484Z,-4.10
2018-02-25T17:14:17.989Z,-4.20
2018-02-25T17:16:50.447Z,-4.20
2018-02-25T17:19:22.936Z,-4.20
2018-02-25T17:21:55.401Z,-4.30
2018-02-25T17:24:27.881Z,-4.40
2018-02-25T17:27:00.348Z,-4.40
2018-02-25T17:29:32.823Z,-4.40
2018-02-25T17:32:05.292Z,-4.40
2018-02-25T17:34:37.777Z,-4.40
2018-02-25T17:37:10.244Z,-4.50
2018-02-25T17:39:42.750Z,-4.50
2018-02-25T17:42:15.219Z,-4.50
2018-02-25T17:44:47.719Z,-4.50
2018-02-25T17:47:20.955Z,-4.50
2018-02-25T17:49:53.452Z,-4.50
2018-02-25T17:52:25.959Z,-4.60
2018-02-25T17:54:58.409Z,-4.60
2018-02-25T17:57:30.897Z,-4.60
2018-02-25T18:00:03.362Z,-4.60
2018-02-25T18:02:35.854Z,-4.60
2018-02-25T18:05:08.321Z,-4.70
2018-02-25T18:07:40.809Z,-4.70
2018-02-25T18:10:14.041Z,-4.70
2018-02-25T18:12:46.596Z,-4.70
2018-02-25T18:15:19.059Z,-4.70
2018-02-25T18:17:52.393Z,-4.70
2018-02-25T18:20:24.846Z,-4.80
2018-02-25T18:22:57.340Z,-4.70
2018-02-25T18:25:29.801Z,-4.80
2018-02-25T18:28:02.290Z,-4.80
2018-02-25T18:30:34.947Z,-4.90
2018-02-25T18:33:07.688Z,-4.80
2018-02-25T18:35:40.631Z,-4.90
2018-02-25T18:38:14.249Z,-5.00
2018-02-25T18:40:46.864Z,-5.00
2018-02-25T18:43:19.574Z,-5.00
2018-02-25T18:45:52.274Z,-5.00
2018-02-25T18:48:24.977Z,-5.00
2018-02-25T18:50:57.507Z,-5.10
2018-02-25T18:53:30.761Z,-5.10
2018-02-25T18:56:03.229Z,-5.10
2018-02-25T18:58:35.710Z,-5.10
2018-02-25T19:01:08.189Z,-5.20
2018-02-25T19:03:40.663Z,-5.20
2018-02-25T19:06:13.128Z,-5.20
2018-02-25T19:08:45.612Z,-5.20
2018-02-25T19:11:18.072Z,-5.20
2018-02-25T19:13:50.548Z,-5.20
2018-02-25T19:16:23.005Z,-5.20
2018-02-25T19:18:55.503Z,-5.30
2018-02-25T19:21:27.997Z,-5.30
2018-02-25T19:24:01.141Z,-5.30
2018-02-25T19:26:33.628Z,-5.30
2018-02-25T19:29:06.123Z,-5.30
2018-02-25T19:31:38.617Z,-5.40
2018-02-25T19:34:11.127Z,-5.40
2018-02-25T19:36:49.335Z,-5.40
2018-02-25T19:39:27.512Z,-5.40
2018-02-25T19:41:59.984Z,-5.40
2018-02-25T19:44:32.449Z,-5.40
2018-02-25T19:47:04.943Z,-5.40
2018-02-25T19:49:37.399Z,-5.40
2018-02-25T19:52:09.910Z,-5.50
2018-02-25T19:54:43.138Z,-5.50
2018-02-25T19:57:15.618Z,-5.50
2018-02-25T19:59:48.087Z,-5.60
2018-02-25T20:02:20.592Z,-5.60
2018-02-25T20:04:53.068Z,-5.60
2018-02-25T20:07:25.525Z,-5.60
2018-02-25T20:09:58.004Z,-5.50
2018-02-25T20:12:30.468Z,-5.50
2018-02-25T20:15:02.947Z,-5.50
2018-02-25T20:17:35.434Z,-5.60
2018-02-25T20:20:07.930Z,-5.70
2018-02-25T20:22:40.413Z,-5.70
2018-02-25T20:25:12.874Z,-5.80
2018-02-25T20:27:45.395Z,-5.80
2018-02-25T20:30:17.880Z,-5.90
2018-02-25T20:32:50.370Z,-5.90
2018-02-25T20:35:22.844Z,-6.00
2018-02-25T20:37:55.329Z,-6.00
2018-02-25T20:40:28.690Z,-6.10
2018-02-25T20:43:01.162Z,-6.10
2018-02-25T20:45:34.382Z,-6.10
2018-02-25T20:48:06.865Z,-6.10
2018-02-25T20:50:39.326Z,-6.10
2018-02-25T20:53:11.813Z,-6.10
2018-02-25T20:55:44.265Z,-6.10
2018-02-25T20:58:16.744Z,-6.10
2018-02-25T21:00:49.201Z,-6.10
2018-02-25T21:03:21.680Z,-6.10
2018-02-25T21:05:54.139Z,-6.10
2018-02-25T21:08:26.793Z,-6.10
2018-02-25T21:10:59.274Z,-6.10
2018-02-25T21:13:31.984Z,-6.10
2018-02-25T21:16:04.715Z,-6.10
2018-02-25T21:18:37.408Z,-6.10
2018-02-25T21:21:10.115Z,-6.10
2018-02-25T21:23:42.791Z,-6.10
2018-02-25T21:26:15.429Z,-6.20
2018-02-25T21:28:47.904Z,-6.20
2018-02-25T21:31:20.380Z,-6.20
2018-02-25T21:33:52.848Z,-6.20
2018-02-25T21:36:25.337Z,-6.20
2018-02-25T21:38:57.819Z,-6.20
2018-02-25T21:41:30.302Z,-6.30
2018-02-25T21:44:02.818Z,-6.30
2018-02-25T21:46:35.338Z,-6.30
2018-02-25T21:49:07.843Z,-6.40
2018-02-25T21:51:40.287Z,-6.50
2018-02-25T21:54:18.434Z,-6.50
2018-02-25T21:56:56.599Z,-6.50
2018-02-25T21:59:34.919Z,-6.50
2018-02-25T22:02:13.071Z,-6.60
2018-02-25T22:04:45.540Z,-6.60
2018-02-25T22:07:18.777Z,-6.70
2018-02-25T22:09:51.267Z,-6.70
2018-02-25T22:12:23.729Z,-6.70
2018-02-25T22:14:56.204Z,-6.80
2018-02-25T22:17:28.656Z,-6.80
2018-02-25T22:20:01.127Z,-6.80
2018-02-25T22:22:34.349Z,-6.90
2018-02-25T22:25:06.837Z,-6.90
2018-02-25T22:27:39.350Z,-6.90
2018-02-25T22:30:11.784Z,-6.90
2018-02-25T22:32:44.244Z,-6.90
2018-02-25T22:35:16.721Z,-7.00
2018-02-25T22:37:49.175Z,-7.00
2018-02-25T22:40:22.416Z,-7.10
2018-02-25T22:42:54.895Z,-7.10
2018-02-25T22:45:27.360Z,-7.20
2018-02-25T22:47:59.841Z,-7.20
2018-02-25T22:50:32.325Z,-7.20
2018-02-25T22:53:04.803Z,-7.30
2018-02-25T22:55:37.256Z,-7.30
2018-02-25T22:58:09.728Z,-7.30
2018-02-25T23:00:42.208Z,-7.30
2018-02-25T23:03:14.656Z,-7.30
2018-02-25T23:05:47.143Z,-7.30
2018-02-25T23:08:19.589Z,-7.40
2018-02-25T23:10:52.847Z,-7.40
2018-02-25T23:13:25.296Z,-7.50
2018-02-25T23:15:57.772Z,-7.40
2018-02-25T23:18:30.236Z,-7.50
2018-02-25T23:21:02.712Z,-7.50
2018-02-25T23:23:35.183Z,-7.50
2018-02-25T23:26:07.668Z,-7.60
2018-02-25T23:28:40.117Z,-7.60
2018-02-25T23:31:12.587Z,-7.60
2018-02-25T23:33:45.035Z,-7.60
2018-02-25T23:36:17.530Z,-7.60
2018-02-25T23:38:49.980Z,-7.70
2018-02-25T23:41:22.448Z,-7.70
2018-02-25T23:43:54.898Z,-7.70
2018-02-25T23:46:27.397Z,-7.70
2018-02-25T23:48:59.843Z,-7.70
2018-02-25T23:51:32.332Z,-7.70
2018-02-25T23:54:04.823Z,-7.70
2018-02-25T23:56:37.308Z,-7.80
2018-02-25T23:59:09.756Z,-7.80
